Impacts TAF Board INFO
FOR SITUATIONAL AWARENESS. NOT TO BE USED FOR FLIGHT PLANNING PURPOSES.
IDs:

KMCO - Orlando Intl, FL, US

Issued at 0857 UTC 18 Oct 2017
Updated at 1111 UTC 18 Oct 2017
Potential Impact None Slight Moderate High
Time1053Z 18/12Z 18/13Z 18/14Z 18/15Z 18/16Z 18/17Z 18/18Z 18/19Z 18/20Z 18/21Z 18/22Z 18/23Z 19/00Z>>
Type OBS PRVL PRVL PRVL PRVL PRVL PRVL PRVL PRVL PRVL PRVL PRVL PRVL PRVL
VIS 10 >6 >6 >6 >6 >6 >6 >6 >6 >6 >6 >6 >6 >6
CIG -- 50 50 50 50 50 50 50 150 150 150 150 150 50
Cover SCT BKN BKN BKN BKN BKN BKN BKN BKN BKN BKN BKN BKN BKN
FltCat VFR VFR VFR VFR VFR VFR VFR VFR VFR VFR VFR VFR VFR VFR
WX -- -- -- -- -- -- -- -- -- -- -- -- -- --
WDir 360 20 20 20 20 20 20 20 40 40 40 40 40 20
WSpd 8 11 11 11 11 11 11 11 14 14 14 14 14 9
WGst -- 17 17 17 17 17 17 17 20 20 20 20 20 --

Raw TAF
KMCO 180857Z 1809/1906 02009KT P6SM VCSH SCT012 SCT025 BKN060
  FM181200 02011G17KT P6SM SCT020 BKN050
  FM181900 04014G20KT P6SM SCT050 BKN150
  FM190000 02009KT P6SM FEW030 BKN050


Raw METAR
KMCO 181053Z 36008KT 10SM FEW020 FEW085 SCT300 21/21 A3007 RMK AO2 SLP180 T02110211 $
KMCO 180953Z 03006KT 10SM FEW009 SCT085 BKN300 22/22 A3006 RMK AO2 SLP177 T02170217 $
KMCO 180934Z 02008KT 10SM SCT009 BKN085 BKN250 22/22 A3005 RMK AO2 T02170217 $
KMCO 180919Z 03008KT 10SM BKN010 OVC090 22/22 A3005 RMK AO2 T02170217 $
KMCO 180853Z 02007KT 10SM FEW012 FEW025 SCT070 BKN250 22/22 A3005 RMK AO2 SLP173 60000 T02170217 58008 $

METAR Board
Radar Display
Forecast Discussion

FOR SITUATIONAL AWARENESS. NOT TO BE USED FOR FLIGHT PLANNING PURPOSES.